Time;durP1;ratioP1;P1;durP2;ratioP2;P2;SDS_P1;SDS_P2;PMS_P1;PMS_P2;Temp;Humidity;BMP_temperature;BMP_pressure;BME280_temperature;BME280_humidity;BME280_pressure;Samples;Min_cycle;Max_cycle;Signal;HPM_P1;HPM_P2
2023/04/06 00:00:23;;;;;;;;;;;11.50;92.00;;;;;;5048664;28;20027;-72
2023/04/06 00:02:48;;;;;;;;;;;11.40;92.00;;;;;;5046946;28;19978;-72
2023/04/06 00:05:14;;;;;;;;;;;11.30;92.10;;;;;;5048404;28;20406;-72
2023/04/06 00:07:40;;;;;;;;;;;11.20;92.10;;;;;;5048317;28;20002;-72
2023/04/06 00:10:06;;;;;;;;;;;11.10;92.10;;;;;;5047185;28;19908;-72
2023/04/06 00:12:31;;;;;;;;;;;11.00;92.10;;;;;;5048286;28;19959;-72
2023/04/06 00:14:57;;;;;;;;;;;10.90;92.10;;;;;;5048005;28;19908;-72
2023/04/06 00:17:23;;;;;;;;;;;10.80;92.10;;;;;;5048259;28;20369;-72
2023/04/06 00:19:48;;;;;;;;;;;10.70;92.20;;;;;;5048265;28;19978;-72
2023/04/06 00:22:14;;;;;;;;;;;10.60;92.20;;;;;;5048079;28;19959;-72
2023/04/06 00:24:40;;;;;;;;;;;10.60;92.30;;;;;;5048035;28;20082;-72
2023/04/06 00:27:05;;;;;;;;;;;10.60;92.30;;;;;;5048102;28;20301;-72
2023/04/06 00:29:31;;;;;;;;;;;10.60;92.30;;;;;;5046821;28;19990;-72
2023/04/06 00:31:56;;;;;;;;;;;10.70;92.20;;;;;;5047982;28;19944;-72
2023/04/06 00:34:22;;;;;;;;;;;10.70;92.10;;;;;;5048026;28;19959;-72
2023/04/06 00:36:47;;;;;;;;;;;10.70;92.10;;;;;;5046799;28;20280;-72
2023/04/06 00:39:13;;;;;;;;;;;10.70;92.00;;;;;;5048045;28;19912;-71
2023/04/06 00:41:39;;;;;;;;;;;10.70;92.00;;;;;;5048181;28;19908;-71
2023/04/06 00:44:04;;;;;;;;;;;10.60;92.00;;;;;;5047944;28;20004;-72
2023/04/06 00:46:30;;;;;;;;;;;10.60;92.00;;;;;;5047880;28;19987;-72
2023/04/06 00:48:56;;;;;;;;;;;10.60;92.00;;;;;;5046615;28;19913;-72
2023/04/06 00:51:22;;;;;;;;;;;10.60;92.00;;;;;;5047782;28;20009;-72
2023/04/06 00:53:47;;;;;;;;;;;10.60;92.00;;;;;;5047762;28;19912;-72
2023/04/06 00:56:13;;;;;;;;;;;10.60;92.10;;;;;;5046556;28;19999;-72
2023/04/06 00:58:39;;;;;;;;;;;10.60;92.10;;;;;;5047192;28;19905;-70
2023/04/06 01:01:04;;;;;;;;;;;10.70;92.10;;;;;;5047588;28;19909;-72
2023/04/06 01:03:30;;;;;;;;;;;10.80;92.10;;;;;;5029852;28;19956;-71
2023/04/06 01:05:58;;;;;;;;;;;10.80;92.10;;;;;;5047707;28;19913;-72
2023/04/06 01:08:24;;;;;;;;;;;10.80;92.10;;;;;;5047677;28;19958;-72
2023/04/06 01:10:50;;;;;;;;;;;10.80;92.10;;;;;;5047600;28;19908;-72
2023/04/06 01:13:15;;;;;;;;;;;10.80;92.00;;;;;;5047687;28;19915;-72
2023/04/06 01:15:41;;;;;;;;;;;10.80;92.00;;;;;;5047748;28;20163;-72
2023/04/06 01:18:10;;;;;;;;;;;10.80;92.00;;;;;;5046315;28;19909;-72
2023/04/06 01:20:36;;;;;;;;;;;10.70;92.00;;;;;;5046284;28;19912;-72
2023/04/06 01:23:01;;;;;;;;;;;10.70;92.00;;;;;;5047570;28;19916;-72
2023/04/06 01:25:27;;;;;;;;;;;10.70;92.00;;;;;;5047534;28;19913;-72
2023/04/06 01:27:52;;;;;;;;;;;10.70;92.00;;;;;;5051000;28;19911;-72
2023/04/06 01:30:18;;;;;;;;;;;10.70;92.00;;;;;;5051470;28;19909;-72
2023/04/06 01:32:44;;;;;;;;;;;10.70;92.00;;;;;;5051241;28;20393;-72
2023/04/06 01:35:10;;;;;;;;;;;10.70;92.00;;;;;;5051276;28;19912;-72
2023/04/06 01:37:36;;;;;;;;;;;10.70;92.00;;;;;;5051292;28;19908;-72
2023/04/06 01:40:02;;;;;;;;;;;10.70;92.00;;;;;;5051299;28;20373;-72
2023/04/06 01:42:28;;;;;;;;;;;10.60;92.00;;;;;;5050129;28;19919;-72
2023/04/06 01:44:53;;;;;;;;;;;10.60;92.00;;;;;;5051411;28;19917;-74
2023/04/06 01:47:19;;;;;;;;;;;10.70;92.00;;;;;;5051293;28;19905;-73
2023/04/06 01:49:45;;;;;;;;;;;10.60;92.00;;;;;;5051335;28;19911;-73
2023/04/06 01:52:10;;;;;;;;;;;10.60;92.00;;;;;;5051128;28;19904;-74
2023/04/06 01:54:36;;;;;;;;;;;10.60;92.00;;;;;;5051164;28;19963;-73
2023/04/06 01:57:02;;;;;;;;;;;10.60;92.00;;;;;;5051131;28;19909;-74
2023/04/06 01:59:27;;;;;;;;;;;10.60;92.00;;;;;;5050987;28;20403;-73
2023/04/06 02:01:53;;;;;;;;;;;10.60;92.00;;;;;;5051048;28;19913;-69
2023/04/06 02:04:18;;;;;;;;;;;10.60;92.00;;;;;;5049135;28;20288;-73
2023/04/06 02:06:44;;;;;;;;;;;10.60;92.00;;;;;;5050865;28;20466;-74
2023/04/06 02:09:09;;;;;;;;;;;10.60;92.00;;;;;;5051001;28;19999;-73
2023/04/06 02:11:35;;;;;;;;;;;10.70;92.00;;;;;;5050712;28;20316;-74
2023/04/06 02:14:01;;;;;;;;;;;10.70;92.00;;;;;;5050765;28;19909;-74
2023/04/06 02:16:26;;;;;;;;;;;10.70;92.00;;;;;;5050725;28;19952;-73
2023/04/06 02:18:52;;;;;;;;;;;10.70;92.00;;;;;;5050703;28;19966;-74
2023/04/06 02:21:19;;;;;;;;;;;10.70;92.00;;;;;;5050659;28;19916;-74
2023/04/06 02:23:49;;;;;;;;;;;10.70;92.00;;;;;;5050747;28;19909;-74
2023/04/06 02:26:14;;;;;;;;;;;10.70;92.00;;;;;;5050614;28;19909;-74
2023/04/06 02:28:40;;;;;;;;;;;10.70;92.00;;;;;;5049200;28;19923;-73
2023/04/06 02:31:06;;;;;;;;;;;10.70;91.90;;;;;;5050472;28;19956;-74
2023/04/06 02:33:31;;;;;;;;;;;10.70;91.90;;;;;;5050490;28;19920;-74
2023/04/06 02:35:57;;;;;;;;;;;10.60;91.90;;;;;;5050425;28;19909;-73
2023/04/06 02:38:22;;;;;;;;;;;10.60;91.90;;;;;;5050260;28;19996;-74
2023/04/06 02:40:48;;;;;;;;;;;10.60;91.90;;;;;;5050298;28;20372;-73
2023/04/06 02:43:15;;;;;;;;;;;10.60;91.90;;;;;;5050325;28;20257;-74
2023/04/06 02:45:40;;;;;;;;;;;10.50;91.90;;;;;;5050221;28;19974;-73
2023/04/06 02:48:06;;;;;;;;;;;10.50;91.90;;;;;;5050641;28;19960;-73
2023/04/06 02:50:31;;;;;;;;;;;10.50;91.90;;;;;;5049992;28;19919;-74
2023/04/06 02:52:57;;;;;;;;;;;10.50;91.90;;;;;;5050218;28;20357;-74
2023/04/06 02:55:22;;;;;;;;;;;10.50;91.90;;;;;;5050012;28;19908;-73
2023/04/06 02:57:48;;;;;;;;;;;10.40;91.90;;;;;;5049886;28;19913;-73
2023/04/06 03:00:14;;;;;;;;;;;10.50;91.90;;;;;;5050295;28;19931;-73
2023/04/06 03:02:39;;;;;;;;;;;10.50;91.90;;;;;;5049606;28;19955;-74
2023/04/06 03:05:05;;;;;;;;;;;10.50;91.90;;;;;;5049913;28;20301;-73
2023/04/06 03:07:31;;;;;;;;;;;10.50;91.90;;;;;;5048462;28;19954;-74
2023/04/06 03:09:56;;;;;;;;;;;10.40;91.90;;;;;;5047936;28;19913;-73
2023/04/06 03:12:22;;;;;;;;;;;10.50;91.90;;;;;;5049691;28;19955;-73
2023/04/06 03:14:47;;;;;;;;;;;10.50;91.90;;;;;;5031697;28;19909;-73
2023/04/06 03:17:13;;;;;;;;;;;10.50;91.90;;;;;;5049725;28;19920;-73
2023/04/06 03:19:38;;;;;;;;;;;10.50;91.90;;;;;;5049510;28;19905;-73
2023/04/06 03:22:04;;;;;;;;;;;10.50;91.90;;;;;;5049440;28;19916;-73
2023/04/06 03:24:30;;;;;;;;;;;10.40;91.90;;;;;;5049455;28;19909;-74
2023/04/06 03:26:56;;;;;;;;;;;10.40;91.80;;;;;;5049320;28;20422;-73
2023/04/06 03:29:21;;;;;;;;;;;10.40;91.90;;;;;;5049351;28;19908;-73
2023/04/06 03:31:47;;;;;;;;;;;10.40;91.90;;;;;;5049322;28;19916;-73
2023/04/06 03:34:12;;;;;;;;;;;10.40;91.90;;;;;;5049336;28;19912;-73
2023/04/06 03:36:38;;;;;;;;;;;10.40;91.90;;;;;;5048234;28;20349;-74
2023/04/06 03:39:05;;;;;;;;;;;10.30;91.90;;;;;;5048026;28;20318;-74
2023/04/06 03:41:31;;;;;;;;;;;10.30;91.90;;;;;;5049208;28;19905;-74
2023/04/06 03:43:56;;;;;;;;;;;10.30;91.90;;;;;;5049063;28;19913;-74
2023/04/06 03:46:22;;;;;;;;;;;10.40;92.00;;;;;;5049093;28;19919;-75
2023/04/06 03:48:48;;;;;;;;;;;10.40;91.90;;;;;;5048495;28;20482;-74
2023/04/06 03:51:14;;;;;;;;;;;10.40;91.90;;;;;;5047492;28;19919;-76
2023/04/06 03:53:40;;;;;;;;;;;10.40;92.00;;;;;;5048888;28;19913;-74
2023/04/06 03:56:05;;;;;;;;;;;10.40;92.00;;;;;;5048786;28;19951;-74
2023/04/06 03:58:31;;;;;;;;;;;10.40;92.00;;;;;;5048869;28;19972;-74
2023/04/06 04:00:56;;;;;;;;;;;10.40;91.90;;;;;;5048783;28;19999;-74
2023/04/06 04:03:23;;;;;;;;;;;10.40;92.00;;;;;;5048456;28;20266;-74
2023/04/06 04:05:50;;;;;;;;;;;10.40;92.00;;;;;;5048749;28;19955;-74
2023/04/06 04:08:15;;;;;;;;;;;10.40;91.90;;;;;;5048438;28;19911;-74
2023/04/06 04:10:41;;;;;;;;;;;10.40;91.90;;;;;;5048611;28;19904;-74
2023/04/06 04:13:06;;;;;;;;;;;10.40;91.90;;;;;;5048566;28;19916;-75
2023/04/06 04:15:32;;;;;;;;;;;10.30;92.10;;;;;;5048501;28;19962;-74
2023/04/06 04:17:57;;;;;;;;;;;10.30;91.90;;;;;;5048356;28;20300;-74
2023/04/06 04:20:23;;;;;;;;;;;10.30;91.90;;;;;;5048500;28;19967;-74
2023/04/06 04:22:49;;;;;;;;;;;10.30;91.80;;;;;;5047104;28;19909;-74
2023/04/06 04:25:14;;;;;;;;;;;10.30;91.80;;;;;;5048231;28;19920;-74
2023/04/06 04:27:40;;;;;;;;;;;10.30;91.80;;;;;;5046810;28;19912;-74
2023/04/06 04:30:06;;;;;;;;;;;10.30;91.80;;;;;;5048144;28;19920;-73
2023/04/06 04:32:31;;;;;;;;;;;10.30;91.90;;;;;;5047857;28;20284;-74
2023/04/06 04:34:57;;;;;;;;;;;10.30;91.90;;;;;;5048026;28;19909;-74
2023/04/06 04:37:22;;;;;;;;;;;10.30;91.90;;;;;;5047088;28;20394;-74
2023/04/06 04:39:48;;;;;;;;;;;10.30;91.90;;;;;;5048253;28;19916;-74
2023/04/06 04:42:14;;;;;;;;;;;10.30;91.90;;;;;;5048526;28;19915;-74
2023/04/06 04:44:39;;;;;;;;;;;10.30;91.90;;;;;;5047995;28;19948;-74
2023/04/06 04:47:05;;;;;;;;;;;10.40;91.90;;;;;;5048198;28;19955;-74
2023/04/06 04:49:31;;;;;;;;;;;10.30;91.90;;;;;;5048080;28;20289;-74
2023/04/06 04:51:56;;;;;;;;;;;10.30;91.80;;;;;;5047888;28;19909;-74
2023/04/06 04:54:22;;;;;;;;;;;10.30;91.90;;;;;;5048040;28;19916;-74
2023/04/06 04:56:48;;;;;;;;;;;10.30;91.80;;;;;;5048027;28;19944;-74
2023/04/06 04:59:13;;;;;;;;;;;10.30;91.90;;;;;;5047465;28;19909;-73
2023/04/06 05:01:39;;;;;;;;;;;10.30;91.90;;;;;;5049808;28;19944;-73
2023/04/06 05:04:05;;;;;;;;;;;10.30;91.90;;;;;;5050763;28;20454;-74
2023/04/06 05:06:30;;;;;;;;;;;10.30;91.90;;;;;;5052053;28;19913;-74
2023/04/06 05:08:56;;;;;;;;;;;10.30;91.90;;;;;;5052244;28;19912;-74
2023/04/06 05:11:21;;;;;;;;;;;10.30;91.90;;;;;;5050629;28;19908;-74
2023/04/06 05:13:47;;;;;;;;;;;10.30;91.80;;;;;;5052042;28;19905;-74
2023/04/06 05:16:13;;;;;;;;;;;10.30;91.80;;;;;;5051783;28;19912;-74
2023/04/06 05:18:38;;;;;;;;;;;10.20;91.80;;;;;;5051717;28;19909;-74
2023/04/06 05:21:04;;;;;;;;;;;10.30;91.90;;;;;;5051701;28;19913;-74
2023/04/06 05:23:30;;;;;;;;;;;10.30;91.90;;;;;;5051633;28;19913;-74
2023/04/06 05:25:55;;;;;;;;;;;10.30;91.90;;;;;;5050191;28;19909;-74
2023/04/06 05:28:21;;;;;;;;;;;10.30;91.90;;;;;;5051812;28;19915;-74
2023/04/06 05:30:47;;;;;;;;;;;10.30;91.90;;;;;;5051490;28;19919;-74
2023/04/06 05:33:12;;;;;;;;;;;10.30;91.80;;;;;;5050252;28;19935;-74
2023/04/06 05:35:38;;;;;;;;;;;10.20;91.80;;;;;;5051704;28;19908;-74
2023/04/06 05:38:05;;;;;;;;;;;10.20;91.80;;;;;;5051449;28;20380;-74
2023/04/06 05:40:31;;;;;;;;;;;10.20;91.90;;;;;;5050006;28;19905;-74
2023/04/06 05:42:57;;;;;;;;;;;10.20;91.90;;;;;;5051220;28;19963;-74
2023/04/06 05:45:22;;;;;;;;;;;10.20;91.90;;;;;;5051240;28;19920;-74
2023/04/06 05:47:48;;;;;;;;;;;10.20;91.90;;;;;;5051141;28;19913;-74
2023/04/06 05:50:14;;;;;;;;;;;10.20;91.80;;;;;;5051030;28;20357;-74
2023/04/06 05:52:42;;;;;;;;;;;10.20;91.80;;;;;;5051043;28;20402;-74
2023/04/06 05:55:09;;;;;;;;;;;10.20;91.80;;;;;;5050819;28;19913;-74
2023/04/06 05:57:34;;;;;;;;;;;10.20;91.90;;;;;;5050909;28;19912;-74
2023/04/06 06:00:00;;;;;;;;;;;10.20;91.90;;;;;;5050955;28;20357;-74
2023/04/06 06:02:25;;;;;;;;;;;10.20;91.90;;;;;;5050887;28;19908;-74
2023/04/06 06:04:51;;;;;;;;;;;10.20;91.90;;;;;;5045977;28;19921;-74
2023/04/06 06:07:17;;;;;;;;;;;10.10;91.90;;;;;;5050930;28;20272;-74
2023/04/06 06:09:42;;;;;;;;;;;10.20;91.90;;;;;;5050911;28;19931;-74
2023/04/06 06:12:08;;;;;;;;;;;10.10;91.90;;;;;;5050345;28;19912;-74
2023/04/06 06:14:34;;;;;;;;;;;10.10;91.90;;;;;;5050862;28;20375;-74
2023/04/06 06:16:59;;;;;;;;;;;10.10;91.90;;;;;;5050575;28;20272;-74
2023/04/06 06:19:25;;;;;;;;;;;10.10;91.90;;;;;;5032689;28;19908;-74
2023/04/06 06:21:51;;;;;;;;;;;10.10;91.90;;;;;;5049147;28;19995;-73
2023/04/06 06:24:16;;;;;;;;;;;10.10;91.90;;;;;;5050354;28;20454;-74
2023/04/06 06:26:42;;;;;;;;;;;10.10;92.00;;;;;;5050317;28;19913;-74
2023/04/06 06:29:08;;;;;;;;;;;10.20;92.00;;;;;;5050103;28;19908;-74
2023/04/06 06:31:35;;;;;;;;;;;10.20;92.00;;;;;;5050668;28;19905;-74
2023/04/06 06:34:01;;;;;;;;;;;10.30;92.00;;;;;;5049304;28;19919;-74
2023/04/06 06:36:27;;;;;;;;;;;10.30;91.90;;;;;;5050316;28;19913;-74
2023/04/06 06:38:53;;;;;;;;;;;10.40;92.00;;;;;;5050028;28;19912;-73
2023/04/06 06:41:18;;;;;;;;;;;10.40;91.90;;;;;;5050041;28;19954;-73
2023/04/06 06:43:44;;;;;;;;;;;10.40;91.90;;;;;;5050015;28;19923;-73
2023/04/06 06:46:10;;;;;;;;;;;10.40;91.90;;;;;;5032184;28;19912;-74
2023/04/06 06:48:35;;;;;;;;;;;10.40;91.90;;;;;;5050176;28;19915;-74
2023/04/06 06:51:01;;;;;;;;;;;10.40;91.90;;;;;;5048625;28;20285;-74
2023/04/06 06:53:27;;;;;;;;;;;10.40;91.90;;;;;;5049938;28;20258;-74
2023/04/06 06:55:52;;;;;;;;;;;10.40;91.90;;;;;;5049795;28;19913;-74
2023/04/06 06:58:19;;;;;;;;;;;10.40;91.90;;;;;;5049583;28;20066;-74
2023/04/06 07:00:44;;;;;;;;;;;10.40;91.90;;;;;;5048134;28;19919;-74
2023/04/06 07:03:10;;;;;;;;;;;10.40;91.90;;;;;;5049529;28;19908;-74
2023/04/06 07:05:35;;;;;;;;;;;10.40;91.90;;;;;;5049597;28;19916;-74
2023/04/06 07:08:01;;;;;;;;;;;10.40;91.90;;;;;;5048344;28;20020;-74
2023/04/06 07:10:27;;;;;;;;;;;10.30;91.90;;;;;;5049403;28;20046;-74
2023/04/06 07:12:52;;;;;;;;;;;10.30;91.90;;;;;;5049270;28;19908;-74
2023/04/06 07:15:18;;;;;;;;;;;10.30;92.00;;;;;;5049359;28;19908;-75
2023/04/06 07:17:46;;;;;;;;;;;10.30;92.00;;;;;;5049153;28;20288;-74
2023/04/06 07:20:12;;;;;;;;;;;10.30;92.00;;;;;;5049336;28;19940;-74
2023/04/06 07:22:38;;;;;;;;;;;10.40;92.10;;;;;;5049186;28;19909;-74
2023/04/06 07:25:04;;;;;;;;;;;10.40;92.10;;;;;;5048229;28;19915;-74
2023/04/06 07:27:29;;;;;;;;;;;10.40;92.00;;;;;;5047951;28;20353;-74
2023/04/06 07:29:55;;;;;;;;;;;10.50;92.00;;;;;;5049158;28;20031;-75
2023/04/06 07:32:21;;;;;;;;;;;10.50;92.00;;;;;;5049124;28;19913;-74
2023/04/06 07:34:46;;;;;;;;;;;10.60;92.00;;;;;;5049003;28;20288;-75
2023/04/06 07:37:12;;;;;;;;;;;10.50;91.90;;;;;;5048246;28;19932;-74
2023/04/06 07:39:38;;;;;;;;;;;10.50;91.90;;;;;;5048657;28;19912;-73
2023/04/06 07:42:03;;;;;;;;;;;10.50;92.00;;;;;;5048576;28;20361;-73
2023/04/06 07:44:29;;;;;;;;;;;10.50;92.00;;;;;;5048606;28;19908;-73
2023/04/06 07:46:54;;;;;;;;;;;10.50;92.00;;;;;;5047381;28;19913;-73
2023/04/06 07:49:20;;;;;;;;;;;10.50;92.10;;;;;;5047225;28;19912;-75
2023/04/06 07:51:46;;;;;;;;;;;10.60;92.10;;;;;;5048350;28;20288;-74
2023/04/06 07:54:11;;;;;;;;;;;10.70;92.10;;;;;;5048349;28;19909;-75
2023/04/06 07:56:37;;;;;;;;;;;10.80;92.10;;;;;;5048311;28;20307;-73
2023/04/06 07:59:02;;;;;;;;;;;10.90;92.10;;;;;;5047616;28;19920;-72
2023/04/06 08:01:29;;;;;;;;;;;11.00;92.10;;;;;;5048500;28;20382;-72
2023/04/06 08:03:55;;;;;;;;;;;11.10;92.10;;;;;;5048393;28;19916;-72
2023/04/06 08:06:21;;;;;;;;;;;11.30;92.30;;;;;;5048490;28;19916;-72
2023/04/06 08:08:46;;;;;;;;;;;11.70;92.40;;;;;;5048480;28;19958;-73
2023/04/06 08:11:12;;;;;;;;;;;12.00;92.30;;;;;;5048140;28;19940;-73
2023/04/06 08:13:37;;;;;;;;;;;12.20;92.10;;;;;;5046702;28;20369;-73
2023/04/06 08:16:03;;;;;;;;;;;12.40;92.10;;;;;;5048104;28;19912;-72
2023/04/06 08:18:29;;;;;;;;;;;12.50;92.10;;;;;;5048149;28;19913;-72
2023/04/06 08:20:55;;;;;;;;;;;12.70;92.30;;;;;;5048193;28;19913;-72
2023/04/06 08:23:21;;;;;;;;;;;13.10;92.60;;;;;;5047884;28;19915;-72
2023/04/06 08:25:47;;;;;;;;;;;13.70;92.60;;;;;;5047803;28;20007;-72
2023/04/06 08:28:12;;;;;;;;;;;14.10;92.50;;;;;;5047655;28;19913;-72
2023/04/06 08:30:41;;;;;;;;;;;14.40;92.20;;;;;;5047758;28;19970;-72
2023/04/06 08:33:07;;;;;;;;;;;14.80;92.50;;;;;;5047711;28;19905;-72
2023/04/06 08:35:32;;;;;;;;;;;15.10;92.40;;;;;;5046107;28;20148;-72
2023/04/06 08:37:58;;;;;;;;;;;15.20;92.20;;;;;;5047696;28;19909;-72
2023/04/06 08:40:25;;;;;;;;;;;15.20;92.00;;;;;;5047678;28;20001;-72
2023/04/06 08:43:02;;;;;;;;;;;15.10;92.00;;;;;;5029584;28;20047;-73
2023/04/06 08:45:27;;;;;;;;;;;15.10;92.30;;;;;;5047541;28;20351;-72
2023/04/06 08:47:54;;;;;;;;;;;15.50;92.40;;;;;;5047464;28;19959;-72
2023/04/06 08:50:20;;;;;;;;;;;15.60;92.20;;;;;;5047524;28;20007;-72
2023/04/06 08:52:46;;;;;;;;;;;15.60;92.00;;;;;;5047209;28;20342;-72
2023/04/06 08:55:12;;;;;;;;;;;15.50;92.00;;;;;;5047775;28;19905;-73
2023/04/06 08:57:37;;;;;;;;;;;15.30;92.00;;;;;;5047191;28;19970;-72
2023/04/06 09:00:04;;;;;;;;;;;15.20;92.00;;;;;;5047191;28;20333;-72
2023/04/06 09:02:30;;;;;;;;;;;15.10;92.20;;;;;;5047295;28;19913;-72
2023/04/06 09:04:56;;;;;;;;;;;15.10;92.40;;;;;;5046631;28;20013;-72
2023/04/06 09:07:22;;;;;;;;;;;15.10;92.40;;;;;;5046021;28;19946;-72
2023/04/06 09:09:47;;;;;;;;;;;15.00;92.40;;;;;;5047377;28;19905;-71
2023/04/06 09:12:26;;;;;;;;;;;14.90;92.40;;;;;;5042831;28;19908;-72
2023/04/06 09:14:52;;;;;;;;;;;14.90;92.40;;;;;;5042111;28;19915;-72
2023/04/06 09:17:25;;;;;;;;;;;14.60;92.10;;;;;;5035832;28;20180;-72
2023/04/06 09:19:51;;;;;;;;;;;14.50;92.70;;;;;;5033091;28;20269;-73
2023/04/06 09:22:17;;;;;;;;;;;15.40;94.10;;;;;;5047380;28;19918;-73
2023/04/06 09:24:43;;;;;;;;;;;16.80;94.20;;;;;;5048203;28;19913;-73
2023/04/06 09:27:09;;;;;;;;;;;17.30;93.50;;;;;;5047655;28;19915;-73
2023/04/06 09:29:36;;;;;;;;;;;17.60;93.10;;;;;;5047854;28;19909;-73
2023/04/06 09:32:05;;;;;;;;;;;17.40;92.50;;;;;;5047619;28;20039;-73
2023/04/06 09:34:31;;;;;;;;;;;16.90;92.10;;;;;;5046635;28;19905;-73
2023/04/06 09:36:56;;;;;;;;;;;16.30;92.30;;;;;;5047933;28;19936;-73
2023/04/06 09:39:23;;;;;;;;;;;16.80;93.80;;;;;;5048413;28;20375;-73
2023/04/06 09:41:50;;;;;;;;;;;18.30;94.90;;;;;;5047839;28;19913;-74
2023/04/06 09:44:16;;;;;;;;;;;19.70;94.30;;;;;;5041728;28;19913;-74
2023/04/06 09:46:42;;;;;;;;;;;19.80;92.90;;;;;;5036520;28;19909;-73
2023/04/06 09:49:09;;;;;;;;;;;19.10;92.10;;;;;;5045548;28;20010;-73
2023/04/06 09:52:00;;;;;;;;;;;18.50;92.70;;;;;;5051267;28;19936;-73
2023/04/06 09:54:28;;;;;;;;;;;19.20;94.10;;;;;;5050708;28;19905;-73
2023/04/06 09:57:01;;;;;;;;;;;19.70;93.00;;;;;;5051236;28;19916;-73
2023/04/06 09:59:42;;;;;;;;;;;19.60;93.50;;;;;;5051019;28;19911;-71
2023/04/06 10:02:13;;;;;;;;;;;20.20;94.40;;;;;;5051214;28;19913;-74
2023/04/06 10:05:01;;;;;;;;;;;21.10;94.20;;;;;;5050708;28;19916;-69
2023/04/06 10:07:27;;;;;;;;;;;21.70;93.80;;;;;;5050995;28;20313;-70
2023/04/06 10:09:54;;;;;;;;;;;21.50;93.00;;;;;;5051022;28;19936;-71
2023/04/06 10:12:20;;;;;;;;;;;20.80;92.30;;;;;;5051113;28;19923;-71
2023/04/06 10:14:45;;;;;;;;;;;19.90;92.00;;;;;;5050860;28;19928;-71
2023/04/06 10:17:11;;;;;;;;;;;19.10;92.50;;;;;;5050648;28;19904;-71
2023/04/06 10:19:55;;;;;;;;;;;18.80;93.10;;;;;;5051175;28;19950;-71
2023/04/06 10:22:36;;;;;;;;;;;18.60;93.00;;;;;;5049045;28;20437;-72
2023/04/06 10:25:02;;;;;;;;;;;18.30;93.20;;;;;;5049896;28;20000;-71
2023/04/06 10:27:29;;;;;;;;;;;19.40;94.60;;;;;;5050271;28;20005;-74
2023/04/06 10:30:00;;;;;;;;;;;20.70;94.60;;;;;;5051195;28;19904;-74
2023/04/06 10:32:38;;;;;;;;;;;21.80;94.70;;;;;;5050931;28;20423;-72
2023/04/06 10:35:07;;;;;;;;;;;22.00;93.50;;;;;;5050926;28;19916;-75
2023/04/06 10:37:46;;;;;;;;;;;21.20;92.60;;;;;;5050605;28;19904;-71
2023/04/06 10:40:22;;;;;;;;;;;20.10;92.50;;;;;;5050458;28;20630;-71
2023/04/06 10:42:47;;;;;;;;;;;18.90;92.40;;;;;;5050933;28;19904;-74
2023/04/06 10:45:20;;;;;;;;;;;17.70;92.60;;;;;;5050826;28;19917;-75
2023/04/06 10:47:46;;;;;;;;;;;17.90;94.70;;;;;;5050324;28;19904;-76
2023/04/06 10:50:14;;;;;;;;;;;19.30;95.40;;;;;;5050468;28;19909;-75
2023/04/06 10:52:40;;;;;;;;;;;20.00;94.60;;;;;;5050600;28;20268;-74
2023/04/06 10:55:06;;;;;;;;;;;20.50;94.50;;;;;;5050531;28;20003;-75
2023/04/06 10:57:32;;;;;;;;;;;21.00;94.40;;;;;;5050449;28;19963;-74
2023/04/06 10:59:58;;;;;;;;;;;21.40;94.30;;;;;;5048924;28;19976;-77
2023/04/06 11:02:23;;;;;;;;;;;20.90;93.50;;;;;;5049851;28;20335;-75
2023/04/06 11:04:57;;;;;;;;;;;20.20;93.50;;;;;;5049762;28;19927;-75
2023/04/06 11:07:23;;;;;;;;;;;19.70;93.80;;;;;;5050065;28;19904;-74
2023/04/06 11:09:49;;;;;;;;;;;20.10;94.70;;;;;;5049947;28;19904;-74
2023/04/06 11:12:25;;;;;;;;;;;20.80;94.90;;;;;;5050140;28;19939;-74
2023/04/06 11:15:02;;;;;;;;;;;22.00;94.80;;;;;;5046487;28;20357;-76
2023/04/06 11:17:28;;;;;;;;;;;22.00;93.40;;;;;;5048616;28;19911;-74
2023/04/06 11:19:54;;;;;;;;;;;21.40;92.90;;;;;;5049754;28;19909;-75
2023/04/06 11:22:20;;;;;;;;;;;21.60;93.90;;;;;;5049755;28;19912;-77
2023/04/06 11:24:45;;;;;;;;;;;22.50;94.20;;;;;;5048466;28;19962;-75
2023/04/06 11:27:11;;;;;;;;;;;23.30;94.40;;;;;;5049749;28;20250;-77
2023/04/06 11:29:37;;;;;;;;;;;24.00;94.30;;;;;;5048344;28;19943;-77
2023/04/06 11:32:04;;;;;;;;;;;24.50;94.30;;;;;;5049679;28;19916;-76
2023/04/06 11:34:30;;;;;;;;;;;25.40;94.50;;;;;;5049308;28;19904;-76
2023/04/06 11:37:05;;;;;;;;;;;25.70;93.70;;;;;;5049381;28;20327;-77
2023/04/06 11:39:32;;;;;;;;;;;25.10;93.30;;;;;;5049991;28;19905;-76
2023/04/06 11:41:59;;;;;;;;;;;24.50;93.70;;;;;;5049087;28;19911;-75
2023/04/06 11:44:31;;;;;;;;;;;24.60;94.20;;;;;;5048729;28;20311;-73
2023/04/06 11:46:57;;;;;;;;;;;25.30;94.50;;;;;;5048578;28;19978;-75
2023/04/06 11:49:26;;;;;;;;;;;26.00;94.40;;;;;;5048116;28;19953;-75
2023/04/06 11:51:52;;;;;;;;;;;26.00;93.80;;;;;;5049126;28;19912;-76
2023/04/06 11:54:17;;;;;;;;;;;25.30;93.40;;;;;;5049114;28;19909;-76
2023/04/06 11:56:46;;;;;;;;;;;24.60;93.20;;;;;;5048934;28;19909;-76
2023/04/06 11:59:11;;;;;;;;;;;24.00;93.60;;;;;;5048926;28;19923;-74
2023/04/06 12:01:45;;;;;;;;;;;24.10;94.20;;;;;;5048490;28;20007;-75
2023/04/06 12:04:10;;;;;;;;;;;24.50;94.40;;;;;;5048549;28;19924;-75
2023/04/06 12:06:36;;;;;;;;;;;24.60;94.40;;;;;;5048808;28;19917;-75
2023/04/06 12:09:01;;;;;;;;;;;24.60;94.70;;;;;;5048640;28;19914;-75
2023/04/06 12:11:28;;;;;;;;;;;24.90;95.00;;;;;;5046141;28;20530;-75
2023/04/06 12:13:54;;;;;;;;;;;25.10;94.60;;;;;;5048517;28;19908;-75
2023/04/06 12:16:19;;;;;;;;;;;24.60;93.60;;;;;;5047651;28;20338;-76
2023/04/06 12:18:45;;;;;;;;;;;24.20;94.30;;;;;;5033704;28;19915;-76
2023/04/06 12:21:10;;;;;;;;;;;24.70;94.90;;;;;;5028513;28;19909;-75
2023/04/06 12:23:36;;;;;;;;;;;24.30;93.60;;;;;;5028435;28;19913;-76
2023/04/06 12:26:03;;;;;;;;;;;23.10;93.90;;;;;;5028055;28;19913;-75
2023/04/06 12:28:28;;;;;;;;;;;22.60;94.50;;;;;;5028204;28;20293;-76
2023/04/06 12:30:55;;;;;;;;;;;22.40;94.60;;;;;;5028915;28;19916;-74
2023/04/06 12:33:21;;;;;;;;;;;22.50;94.60;;;;;;5028492;28;20527;-77
2023/04/06 12:35:46;;;;;;;;;;;22.70;94.50;;;;;;5026526;28;19905;-76
2023/04/06 12:38:12;;;;;;;;;;;23.00;94.40;;;;;;5028026;28;20051;-77
2023/04/06 12:40:38;;;;;;;;;;;23.10;94.00;;;;;;5028124;28;19992;-77
2023/04/06 12:43:03;;;;;;;;;;;23.20;94.00;;;;;;5026807;28;20389;-73
2023/04/06 12:45:30;;;;;;;;;;;23.70;94.40;;;;;;5028397;28;19947;-73
2023/04/06 12:47:56;;;;;;;;;;;24.30;94.40;;;;;;5028062;28;20329;-74
2023/04/06 12:50:21;;;;;;;;;;;24.60;94.10;;;;;;5027812;28;19909;-71
2023/04/06 12:52:47;;;;;;;;;;;24.80;94.00;;;;;;5027924;28;20449;-76
2023/04/06 12:55:12;;;;;;;;;;;25.00;94.00;;;;;;5028337;28;19924;-73
2023/04/06 12:57:38;;;;;;;;;;;25.10;94.10;;;;;;5028367;28;19912;-76
2023/04/06 13:00:04;;;;;;;;;;;25.30;94.10;;;;;;5027182;28;20630;-75
2023/04/06 13:02:30;;;;;;;;;;;25.40;93.80;;;;;;5028401;28;19909;-74
2023/04/06 13:04:56;;;;;;;;;;;25.00;93.40;;;;;;5027975;28;19935;-72
2023/04/06 13:07:21;;;;;;;;;;;24.50;93.10;;;;;;5029107;28;19920;-76
2023/04/06 13:09:49;;;;;;;;;;;23.80;92.80;;;;;;5027911;28;20321;-75
2023/04/06 13:12:15;;;;;;;;;;;23.10;93.10;;;;;;5028244;28;19913;-75
2023/04/06 13:14:40;;;;;;;;;;;22.50;93.60;;;;;;5027861;28;19909;-75
2023/04/06 13:17:06;;;;;;;;;;;22.50;94.60;;;;;;5027428;28;19927;-75
2023/04/06 13:19:32;;;;;;;;;;;23.10;94.80;;;;;;5027477;28;19913;-75
2023/04/06 13:21:58;;;;;;;;;;;23.70;94.80;;;;;;5028038;28;20234;-77
2023/04/06 13:24:23;;;;;;;;;;;24.20;94.60;;;;;;5031349;28;19913;-76
2023/04/06 13:26:49;;;;;;;;;;;24.50;94.20;;;;;;5029961;28;19916;-75
2023/04/06 13:29:14;;;;;;;;;;;24.30;93.70;;;;;;5031386;28;19935;-75
2023/04/06 13:31:40;;;;;;;;;;;24.10;94.10;;;;;;5031597;28;19917;-75
2023/04/06 13:34:06;;;;;;;;;;;24.20;94.30;;;;;;5031954;28;19928;-75
2023/04/06 13:36:32;;;;;;;;;;;24.30;94.20;;;;;;5030493;28;19984;-74
2023/04/06 13:38:58;;;;;;;;;;;24.40;94.10;;;;;;5036879;28;19904;-75
2023/04/06 13:41:25;;;;;;;;;;;24.40;94.20;;;;;;5042817;28;19912;-74
2023/04/06 13:43:51;;;;;;;;;;;24.10;93.60;;;;;;5039760;28;19936;-75
2023/04/06 13:46:16;;;;;;;;;;;23.30;93.00;;;;;;5039623;28;20430;-74
2023/04/06 13:48:42;;;;;;;;;;;22.50;92.80;;;;;;5051959;28;19911;-75
2023/04/06 13:51:12;;;;;;;;;;;21.60;92.80;;;;;;5052054;28;20003;-75
2023/04/06 13:53:37;;;;;;;;;;;21.00;93.10;;;;;;5052000;28;20341;-74
2023/04/06 13:56:03;;;;;;;;;;;20.60;93.10;;;;;;5051186;28;19916;-73
2023/04/06 13:58:29;;;;;;;;;;;20.30;93.20;;;;;;5051131;28;19924;-72
2023/04/06 14:00:55;;;;;;;;;;;20.10;93.30;;;;;;5033653;28;19909;-72
2023/04/06 14:03:21;;;;;;;;;;;19.80;93.10;;;;;;5051164;28;19994;-74
2023/04/06 14:05:46;;;;;;;;;;;19.50;93.20;;;;;;5051008;28;19916;-74
2023/04/06 14:08:12;;;;;;;;;;;19.20;93.20;;;;;;5050959;28;19913;-71
2023/04/06 14:10:41;;;;;;;;;;;18.90;93.10;;;;;;5052287;28;19905;-72